createdAt,value
2022-09-23T00:00:43.945Z,5.25
2022-09-23T00:03:11.011Z,5.20
2022-09-23T00:05:38.338Z,5.18
2022-09-23T00:08:06.460Z,4.85
2022-09-23T00:10:33.005Z,4.85
2022-09-23T00:12:59.834Z,5.40
2022-09-23T00:15:26.886Z,5.20
2022-09-23T00:17:53.408Z,5.32
2022-09-23T00:20:20.204Z,5.35
2022-09-23T00:22:46.643Z,5.07
2022-09-23T00:25:13.132Z,6.30
2022-09-23T00:27:41.899Z,5.20
2022-09-23T00:30:10.121Z,5.68
2022-09-23T00:32:37.763Z,5.50
2022-09-23T00:35:04.530Z,6.00
2022-09-23T00:37:31.549Z,5.72
2022-09-23T00:40:00.713Z,5.55
2022-09-23T00:42:27.123Z,5.30
2022-09-23T00:44:59.302Z,6.00
2022-09-23T00:47:41.036Z,5.50
2022-09-23T00:50:26.404Z,5.38
2022-09-23T00:52:56.664Z,5.63
2022-09-23T00:55:28.146Z,5.38
2022-09-23T00:57:56.864Z,5.25
2022-09-23T01:00:23.703Z,5.35
2022-09-23T01:02:51.104Z,5.20
2022-09-23T01:05:18.458Z,5.78
2022-09-23T01:07:45.915Z,5.03
2022-09-23T01:10:14.550Z,5.32
2022-09-23T01:13:07.711Z,5.70
2022-09-23T01:16:06.619Z,5.07
2022-09-23T01:18:53.797Z,5.13
2022-09-23T01:21:41.955Z,5.32
2022-09-23T01:24:32.941Z,5.72
2022-09-23T01:27:12.964Z,5.45
2022-09-23T01:30:01.345Z,6.03
2022-09-23T01:32:39.040Z,5.95
2022-09-23T01:35:09.661Z,6.38
2022-09-23T01:38:00.912Z,5.90
2022-09-23T01:40:51.757Z,5.73
2022-09-23T01:43:25.944Z,5.85
2022-09-23T01:45:59.427Z,6.35
2022-09-23T01:48:44.975Z,6.35
2022-09-23T01:51:42.223Z,6.70
2022-09-23T01:54:31.549Z,6.72
2022-09-23T01:57:03.621Z,6.80
2022-09-23T01:59:40.624Z,6.68
2022-09-23T02:02:15.845Z,6.65
2022-09-23T02:04:54.088Z,7.13
2022-09-23T02:07:45.108Z,7.13
2022-09-23T02:10:36.225Z,7.10
2022-09-23T02:13:09.135Z,6.43
2022-09-23T02:15:44.661Z,6.75
2022-09-23T02:18:20.129Z,7.20
2022-09-23T02:20:49.009Z,6.47
2022-09-23T02:23:20.977Z,6.78
2022-09-23T02:25:53.060Z,6.97
2022-09-23T02:28:34.513Z,6.80
2022-09-23T02:31:21.323Z,6.72
2022-09-23T02:33:56.954Z,6.80
2022-09-23T02:36:31.421Z,6.70
2022-09-23T02:39:03.439Z,6.72
2022-09-23T02:41:44.572Z,6.60
2022-09-23T02:44:16.891Z,6.33
2022-09-23T02:46:44.264Z,6.90
2022-09-23T02:49:17.487Z,6.93
2022-09-23T02:51:44.673Z,7.00
2022-09-23T02:54:15.627Z,6.60
2022-09-23T02:56:42.585Z,6.43
2022-09-23T02:59:10.074Z,6.50
2022-09-23T03:01:56.758Z,6.43
2022-09-23T03:04:42.437Z,6.55
2022-09-23T03:07:35.807Z,6.18
2022-09-23T03:10:07.557Z,6.10
2022-09-23T03:13:07.664Z,6.18
2022-09-23T03:15:43.139Z,5.97
2022-09-23T03:18:17.349Z,6.40
2022-09-23T03:20:52.526Z,6.50
2022-09-23T03:23:25.127Z,6.32
2022-09-23T03:25:55.498Z,6.20
2022-09-23T03:28:25.299Z,5.72
2022-09-23T03:30:54.351Z,6.75
2022-09-23T03:33:28.528Z,6.22
2022-09-23T03:36:27.934Z,5.60
2022-09-23T03:39:05.409Z,5.53
2022-09-23T03:41:37.874Z,6.50
2022-09-23T03:44:07.051Z,6.22
2022-09-23T03:46:35.317Z,6.25
2022-09-23T03:49:16.363Z,5.88
2022-09-23T03:51:44.657Z,6.47
2022-09-23T03:54:11.342Z,7.03
2022-09-23T03:56:37.770Z,6.10
2022-09-23T03:59:04.170Z,5.63
2022-09-23T04:01:30.639Z,6.15
2022-09-23T04:03:57.052Z,5.65
2022-09-23T04:06:23.473Z,5.60
2022-09-23T04:08:50.068Z,6.03
2022-09-23T04:11:16.460Z,5.88
2022-09-23T04:13:42.907Z,5.93
2022-09-23T04:16:09.395Z,6.00
2022-09-23T04:18:35.862Z,6.10
2022-09-23T04:21:02.420Z,6.05
2022-09-23T04:23:28.834Z,5.32
2022-09-23T04:25:55.579Z,5.57
2022-09-23T04:28:22.469Z,5.85
2022-09-23T04:30:50.061Z,5.32
2022-09-23T04:33:17.323Z,5.60
2022-09-23T04:35:43.792Z,5.38
2022-09-23T04:38:13.153Z,5.28
2022-09-23T04:40:40.348Z,5.60
2022-09-23T04:43:10.553Z,5.47
2022-09-23T04:45:39.346Z,5.85
2022-09-23T04:48:05.782Z,5.68
2022-09-23T04:50:33.777Z,7.40
2022-09-23T04:53:00.217Z,5.53
2022-09-23T04:55:26.676Z,6.05
2022-09-23T04:57:55.469Z,5.95
2022-09-23T05:00:23.148Z,6.18
2022-09-23T05:02:50.620Z,5.72
2022-09-23T05:05:21.073Z,5.88
2022-09-23T05:07:48.407Z,6.20
2022-09-23T05:10:15.507Z,5.95
2022-09-23T05:12:42.140Z,5.68
2022-09-23T05:15:08.825Z,6.47
2022-09-23T05:17:37.190Z,6.20
2022-09-23T05:20:04.815Z,6.35
2022-09-23T05:22:31.836Z,6.50
2022-09-23T05:25:00.188Z,6.53
2022-09-23T05:27:26.682Z,6.22
2022-09-23T05:29:53.151Z,6.53
2022-09-23T05:32:20.001Z,6.38
2022-09-23T05:34:46.698Z,6.47
2022-09-23T05:37:13.203Z,6.35
2022-09-23T05:39:39.646Z,6.78
2022-09-23T05:42:06.757Z,6.30
2022-09-23T05:44:33.209Z,6.57
2022-09-23T05:46:59.693Z,6.13
2022-09-23T05:49:42.493Z,6.95
2022-09-23T05:52:12.532Z,6.35
2022-09-23T05:54:39.192Z,7.20
2022-09-23T05:57:06.032Z,6.78
2022-09-23T05:59:32.823Z,7.32
2022-09-23T06:01:59.851Z,8.10
2022-09-23T06:04:26.359Z,7.53
2022-09-23T06:06:53.074Z,8.15
2022-09-23T06:09:19.501Z,9.23
2022-09-23T06:11:46.697Z,8.65
2022-09-23T06:14:14.578Z,9.05
2022-09-23T06:16:41.029Z,9.10
2022-09-23T06:19:07.463Z,8.55
2022-09-23T06:21:37.243Z,8.73
2022-09-23T06:24:04.162Z,9.27
2022-09-23T06:26:33.515Z,8.93
2022-09-23T06:29:01.636Z,8.73
2022-09-23T06:31:28.905Z,8.73
2022-09-23T06:34:08.664Z,9.32
2022-09-23T06:36:43.955Z,9.38
2022-09-23T06:39:12.451Z,10.40
2022-09-23T06:41:39.220Z,11.23
2022-09-23T06:44:11.384Z,11.18
2022-09-23T06:46:37.922Z,12.57
2022-09-23T06:49:04.590Z,12.55
2022-09-23T06:51:31.473Z,12.82
2022-09-23T06:53:57.912Z,13.00
2022-09-23T06:56:24.687Z,13.40
2022-09-23T06:58:52.476Z,13.45
2022-09-23T07:01:19.637Z,14.25
2022-09-23T07:03:48.117Z,13.60
2022-09-23T07:06:14.697Z,13.10
2022-09-23T07:08:44.076Z,13.80
2022-09-23T07:11:13.104Z,13.55
2022-09-23T07:13:41.247Z,13.18
2022-09-23T07:16:09.289Z,14.43
2022-09-23T07:18:37.367Z,14.90
2022-09-23T07:21:14.899Z,15.02
2022-09-23T07:23:46.203Z,14.48
2022-09-23T07:26:16.643Z,15.38
2022-09-23T07:28:43.384Z,14.73
2022-09-23T07:31:20.602Z,14.13
2022-09-23T07:33:57.656Z,14.27
2022-09-23T07:36:24.961Z,18.45
2022-09-23T07:38:51.440Z,14.70
2022-09-23T07:41:19.103Z,15.38
2022-09-23T07:43:46.366Z,13.60
2022-09-23T07:46:16.749Z,13.75
2022-09-23T07:48:44.984Z,13.60
2022-09-23T07:51:19.074Z,14.15
2022-09-23T07:53:49.952Z,14.43
2022-09-23T07:56:18.922Z,13.87
2022-09-23T07:58:59.942Z,14.07
2022-09-23T08:01:31.226Z,14.17
2022-09-23T08:03:59.686Z,14.05
2022-09-23T08:06:26.436Z,14.07
2022-09-23T08:08:53.613Z,14.15
2022-09-23T08:11:20.389Z,13.70
2022-09-23T08:13:47.532Z,13.43
2022-09-23T08:16:14.181Z,12.98
2022-09-23T08:18:43.917Z,13.90
2022-09-23T08:21:10.315Z,13.75
2022-09-23T08:23:37.035Z,13.18
2022-09-23T08:26:10.031Z,13.05
2022-09-23T08:28:41.017Z,11.90
2022-09-23T08:31:08.289Z,11.27
2022-09-23T08:33:34.765Z,11.60
2022-09-23T08:36:02.600Z,11.32
2022-09-23T08:38:29.782Z,10.15
2022-09-23T08:41:07.570Z,11.20
2022-09-23T08:43:35.934Z,10.45
2022-09-23T08:46:05.150Z,10.32
2022-09-23T08:48:42.280Z,10.13
2022-09-23T08:51:15.856Z,9.30
2022-09-23T08:53:43.757Z,9.65
2022-09-23T08:56:19.186Z,9.73
2022-09-23T08:59:07.484Z,10.77
2022-09-23T09:01:45.593Z,9.32
2022-09-23T09:04:32.898Z,9.10
2022-09-23T09:07:35.270Z,8.52
2022-09-23T09:10:23.252Z,9.25
2022-09-23T09:13:07.316Z,8.55
2022-09-23T09:15:42.796Z,8.60
2022-09-23T09:18:19.818Z,8.23
2022-09-23T09:20:57.314Z,8.45
2022-09-23T09:23:31.544Z,7.90
2022-09-23T09:26:01.521Z,8.27
2022-09-23T09:28:48.709Z,7.88
2022-09-23T09:31:24.566Z,8.18
2022-09-23T09:33:57.911Z,8.50
2022-09-23T09:36:42.522Z,8.65
2022-09-23T09:39:14.356Z,8.85
2022-09-23T09:41:46.683Z,8.75
2022-09-23T09:44:24.759Z,8.80
2022-09-23T09:47:02.671Z,8.85
2022-09-23T09:49:48.839Z,8.30
2022-09-23T09:52:26.839Z,8.80
2022-09-23T09:54:53.695Z,8.88
2022-09-23T09:57:33.678Z,8.38
2022-09-23T10:00:26.449Z,8.55
2022-09-23T10:03:24.647Z,8.27
2022-09-23T10:05:54.374Z,8.88
2022-09-23T10:08:34.953Z,9.00
2022-09-23T10:11:08.044Z,8.57
2022-09-23T10:13:37.959Z,8.93
2022-09-23T10:16:05.262Z,7.97
2022-09-23T10:18:37.417Z,8.43
2022-09-23T10:21:06.978Z,7.93
2022-09-23T10:23:34.076Z,7.40
2022-09-23T10:26:03.022Z,45.05
2022-09-23T10:28:41.171Z,8.98
2022-09-23T10:31:26.279Z,6.82
2022-09-23T10:34:26.544Z,6.43
2022-09-23T10:37:07.520Z,6.20
2022-09-23T10:39:52.591Z,6.40
2022-09-23T10:42:52.662Z,6.72
2022-09-23T10:45:45.696Z,6.20
2022-09-23T10:48:28.661Z,6.80
2022-09-23T10:50:59.448Z,6.18
2022-09-23T10:53:57.555Z,7.03
2022-09-23T10:56:40.749Z,6.70
2022-09-23T10:59:18.640Z,6.88
2022-09-23T11:01:59.094Z,6.82
2022-09-23T11:04:54.757Z,6.75
2022-09-23T11:07:39.290Z,6.75
2022-09-23T11:10:23.340Z,6.82
2022-09-23T11:13:15.029Z,7.13
2022-09-23T11:15:53.641Z,7.50
2022-09-23T11:18:32.026Z,7.95
2022-09-23T11:21:20.143Z,7.10
2022-09-23T11:23:59.618Z,7.00
2022-09-23T11:26:53.034Z,6.95
2022-09-23T11:29:34.282Z,7.10
2022-09-23T11:32:39.628Z,7.57
2022-09-23T11:35:22.820Z,7.38
2022-09-23T11:37:58.571Z,7.15
2022-09-23T11:40:34.427Z,7.10
2022-09-23T11:43:15.548Z,7.32
2022-09-23T11:45:57.871Z,7.15
2022-09-23T11:48:37.931Z,15.82
2022-09-23T11:51:21.366Z,9.93
2022-09-23T11:53:55.129Z,6.78
2022-09-23T11:56:34.913Z,6.88
2022-09-23T11:59:34.791Z,6.45
2022-09-23T12:02:19.215Z,5.60
2022-09-23T12:05:03.712Z,5.72
2022-09-23T12:07:56.511Z,6.18
2022-09-23T12:10:36.013Z,5.53
2022-09-23T12:13:34.211Z,5.38
2022-09-23T12:16:18.896Z,4.55
2022-09-23T12:19:23.108Z,4.95
2022-09-23T12:22:06.361Z,5.00
2022-09-23T12:24:55.919Z,4.90
2022-09-23T12:27:31.854Z,4.80
2022-09-23T12:30:04.748Z,4.55
2022-09-23T12:32:32.521Z,4.07
2022-09-23T12:35:00.471Z,3.90
2022-09-23T12:37:35.548Z,4.03
2022-09-23T12:40:16.906Z,3.72
2022-09-23T12:42:46.265Z,3.00
2022-09-23T12:45:28.157Z,3.63
2022-09-23T12:47:54.758Z,3.63
2022-09-23T12:50:53.964Z,3.40
2022-09-23T12:53:35.676Z,3.33
2022-09-23T12:56:18.161Z,4.00
2022-09-23T12:58:44.674Z,3.25
2022-09-23T13:01:17.059Z,3.85
2022-09-23T13:04:08.459Z,4.00
2022-09-23T13:06:41.083Z,4.60
2022-09-23T13:09:16.748Z,3.90
2022-09-23T13:11:47.868Z,3.47
2022-09-23T13:14:27.270Z,4.32
2022-09-23T13:16:58.197Z,4.63
2022-09-23T13:19:34.279Z,3.58
2022-09-23T13:22:09.454Z,4.72
2022-09-23T13:24:47.461Z,4.72
2022-09-23T13:27:33.970Z,4.55
2022-09-23T13:30:19.305Z,4.20
2022-09-23T13:32:53.595Z,4.43
2022-09-23T13:35:27.109Z,4.55
2022-09-23T13:37:53.589Z,4.63
2022-09-23T13:40:26.987Z,4.60
2022-09-23T13:43:01.235Z,4.88
2022-09-23T13:45:28.945Z,4.53
2022-09-23T13:48:01.314Z,4.38
2022-09-23T13:50:34.712Z,4.18
2022-09-23T13:53:06.353Z,4.13
2022-09-23T13:55:38.890Z,4.80
2022-09-23T13:58:28.305Z,4.05
2022-09-23T14:00:56.717Z,4.25
2022-09-23T14:03:26.106Z,4.07
2022-09-23T14:05:55.488Z,4.93
2022-09-23T14:08:22.689Z,4.57
2022-09-23T14:10:49.608Z,4.47
2022-09-23T14:13:41.557Z,4.65
2022-09-23T14:16:10.949Z,4.75
2022-09-23T14:18:51.737Z,4.50
2022-09-23T14:21:39.716Z,4.00
2022-09-23T14:24:44.519Z,3.90
2022-09-23T14:27:15.803Z,3.70
2022-09-23T14:29:47.761Z,3.67
2022-09-23T14:32:17.768Z,4.25
2022-09-23T14:35:00.792Z,4.28
2022-09-23T14:37:55.079Z,4.40
2022-09-23T14:40:26.470Z,4.82
2022-09-23T14:43:26.894Z,4.22
2022-09-23T14:45:56.755Z,5.20
2022-09-23T14:48:31.547Z,5.03
2022-09-23T14:51:00.039Z,4.82
2022-09-23T14:53:40.907Z,5.32
2022-09-23T14:56:07.313Z,5.88
2022-09-23T14:58:52.342Z,6.97
2022-09-23T15:01:32.049Z,6.78
2022-09-23T15:04:08.874Z,6.32
2022-09-23T15:06:37.918Z,6.13
2022-09-23T15:09:05.706Z,6.60
2022-09-23T15:11:35.066Z,6.82
2022-09-23T15:14:35.990Z,7.65
2022-09-23T15:16:51.122Z,6.90
2022-09-23T15:19:20.910Z,6.95
2022-09-23T15:21:52.108Z,7.60
2022-09-23T15:24:33.835Z,6.72
2022-09-23T15:29:26.938Z,7.35
2022-09-23T15:31:53.488Z,6.95
2022-09-23T15:34:20.813Z,7.38
2022-09-23T15:36:48.251Z,7.97
2022-09-23T15:39:14.963Z,7.25
2022-09-23T15:41:43.140Z,7.88
2022-09-23T15:44:14.393Z,7.60
2022-09-23T15:46:46.653Z,7.82
2022-09-23T15:49:27.349Z,7.88
2022-09-23T15:51:55.789Z,7.40
2022-09-23T15:54:22.233Z,6.93
2022-09-23T15:56:48.641Z,7.30
2022-09-23T15:59:15.029Z,7.30
2022-09-23T16:01:43.158Z,7.95
2022-09-23T16:04:12.912Z,8.07
2022-09-23T16:06:39.601Z,8.48
2022-09-23T16:09:06.072Z,7.93
2022-09-23T16:11:32.714Z,7.88
2022-09-23T16:14:00.579Z,7.40
2022-09-23T16:16:30.069Z,6.80
2022-09-23T16:18:56.745Z,7.82
2022-09-23T16:21:28.461Z,8.23
2022-09-23T16:23:57.131Z,7.93
2022-09-23T16:26:27.211Z,8.77
2022-09-23T16:28:55.800Z,8.13
2022-09-23T16:31:25.368Z,8.07
2022-09-23T16:33:53.349Z,8.57
2022-09-23T16:36:28.792Z,8.40
2022-09-23T16:38:55.778Z,8.52
2022-09-23T16:41:23.422Z,8.18
2022-09-23T16:43:50.904Z,7.78
2022-09-23T16:46:19.448Z,9.07
2022-09-23T16:48:52.249Z,8.70
2022-09-23T16:51:26.413Z,13.05
2022-09-23T16:53:54.456Z,13.50
2022-09-23T16:56:27.973Z,14.18
2022-09-23T16:58:55.523Z,13.63
2022-09-23T17:02:03.588Z,12.50
2022-09-23T17:04:30.487Z,12.80
2022-09-23T17:06:57.594Z,11.88
2022-09-23T17:09:26.738Z,11.43
2022-09-23T17:12:04.322Z,12.27
2022-09-23T17:14:31.472Z,10.90
2022-09-23T17:16:58.842Z,11.68
2022-09-23T17:19:25.371Z,12.07
2022-09-23T17:21:53.033Z,11.75
2022-09-23T17:24:19.433Z,12.13
2022-09-23T17:26:49.364Z,12.65
2022-09-23T17:29:19.140Z,12.77
2022-09-23T17:31:46.591Z,11.90
2022-09-23T17:34:13.228Z,13.00
2022-09-23T17:36:40.319Z,12.82
2022-09-23T17:39:06.982Z,13.30
2022-09-23T17:41:33.525Z,13.48
2022-09-23T17:44:00.478Z,13.30
2022-09-23T17:46:28.871Z,13.80
2022-09-23T17:48:56.226Z,14.05
2022-09-23T17:51:24.125Z,14.40
2022-09-23T17:53:51.054Z,14.77
2022-09-23T17:56:24.802Z,14.63
2022-09-23T17:58:53.270Z,14.60
2022-09-23T18:01:22.349Z,13.88
2022-09-23T18:03:54.421Z,15.27
2022-09-23T18:06:23.128Z,15.02
2022-09-23T18:08:51.038Z,14.43
2022-09-23T18:11:38.710Z,14.80
2022-09-23T18:14:16.595Z,15.70
2022-09-23T18:16:45.573Z,17.13
2022-09-23T18:19:14.679Z,16.75
2022-09-23T18:21:44.445Z,16.02
2022-09-23T18:26:59.653Z,16.65
2022-09-23T18:29:26.340Z,16.60
2022-09-23T18:31:53.009Z,17.20
2022-09-23T18:34:20.105Z,16.17
2022-09-23T18:36:46.753Z,16.10
2022-09-23T18:39:13.200Z,16.70
2022-09-23T18:41:40.578Z,16.48
2022-09-23T18:44:07.086Z,17.27
2022-09-23T18:46:33.750Z,17.70
2022-09-23T18:49:18.838Z,17.75
2022-09-23T18:51:54.507Z,18.52
2022-09-23T18:54:22.350Z,18.95
2022-09-23T18:56:49.854Z,18.80
2022-09-23T18:59:19.423Z,19.10
2022-09-23T19:01:47.620Z,19.40
2022-09-23T19:04:16.684Z,20.00
2022-09-23T19:06:43.170Z,19.40
2022-09-23T19:09:10.426Z,18.65
2022-09-23T19:11:37.040Z,19.73
2022-09-23T19:14:06.519Z,19.10
2022-09-23T19:16:34.805Z,19.30
2022-09-23T19:19:02.569Z,19.58
2022-09-23T19:21:30.323Z,20.25
2022-09-23T19:24:03.298Z,20.60
2022-09-23T19:26:37.386Z,20.40
2022-09-23T19:29:05.674Z,19.85
2022-09-23T19:31:35.308Z,20.00
2022-09-23T19:34:09.879Z,19.77
2022-09-23T19:36:39.348Z,19.35
2022-09-23T19:39:17.414Z,19.55
2022-09-23T19:41:44.633Z,20.42
2022-09-23T19:44:11.712Z,19.85
2022-09-23T19:46:40.772Z,21.00
2022-09-23T19:49:07.713Z,19.75
2022-09-23T19:51:34.704Z,21.75
2022-09-23T19:54:02.129Z,22.25
2022-09-23T19:56:29.559Z,20.83
2022-09-23T19:58:57.546Z,20.33
2022-09-23T20:01:26.475Z,20.98
2022-09-23T20:03:53.349Z,20.30
2022-09-23T20:06:20.423Z,20.55
2022-09-23T20:08:47.858Z,19.85
2022-09-23T20:11:17.400Z,21.58
2022-09-23T20:13:47.111Z,20.73
2022-09-23T20:16:18.715Z,20.77
2022-09-23T20:18:46.537Z,21.13
2022-09-23T20:21:15.114Z,22.20
2022-09-23T20:23:41.960Z,21.58
2022-09-23T20:26:27.946Z,21.67
2022-09-23T20:28:55.089Z,20.75
2022-09-23T20:31:22.919Z,21.40
2022-09-23T20:33:51.293Z,21.63
2022-09-23T20:36:17.687Z,21.92
2022-09-23T20:38:44.085Z,21.52
2022-09-23T20:41:10.550Z,21.35
2022-09-23T20:43:37.021Z,20.42
2022-09-23T20:46:05.335Z,21.40
2022-09-23T20:48:31.992Z,20.77
2022-09-23T20:51:05.807Z,20.48
2022-09-23T20:53:32.684Z,21.27
2022-09-23T20:55:59.564Z,21.70
2022-09-23T20:58:29.080Z,22.98
2022-09-23T21:01:04.271Z,22.05
2022-09-23T21:03:32.048Z,21.60
2022-09-23T21:06:03.780Z,21.73
2022-09-23T21:10:58.447Z,20.23
2022-09-23T21:13:25.115Z,22.05
2022-09-23T21:15:51.874Z,21.15
2022-09-23T21:18:22.347Z,22.17
2022-09-23T21:20:59.355Z,21.30
2022-09-23T21:23:32.179Z,21.17
2022-09-23T21:26:13.710Z,20.92
2022-09-23T21:28:42.233Z,21.80
2022-09-23T21:31:11.496Z,20.90
2022-09-23T21:33:38.034Z,22.60
2022-09-23T21:36:07.012Z,21.77
2022-09-23T21:38:37.336Z,21.35
2022-09-23T21:41:06.783Z,21.13
2022-09-23T21:43:35.543Z,19.45
2022-09-23T21:46:04.258Z,20.38
2022-09-23T21:48:33.171Z,19.83
2022-09-23T21:51:02.542Z,21.00
2022-09-23T21:53:30.965Z,20.65
2022-09-23T21:56:05.204Z,20.95
2022-09-23T21:58:33.037Z,21.10
2022-09-23T22:00:59.602Z,20.33
2022-09-23T22:03:26.190Z,20.17
2022-09-23T22:06:11.513Z,20.92
2022-09-23T22:08:42.970Z,20.30
2022-09-23T22:11:30.569Z,21.10
2022-09-23T22:13:58.037Z,20.45
2022-09-23T22:16:25.092Z,21.05
2022-09-23T22:18:55.173Z,20.85
2022-09-23T22:21:23.037Z,20.58
2022-09-23T22:23:54.190Z,22.30
2022-09-23T22:26:20.740Z,23.13
2022-09-23T22:29:05.617Z,22.33
2022-09-23T22:31:50.891Z,22.73
2022-09-23T22:34:47.527Z,22.73
2022-09-23T22:37:04.389Z,23.60
2022-09-23T22:39:30.942Z,22.65
2022-09-23T22:41:58.739Z,23.25
2022-09-23T22:44:25.508Z,23.75
2022-09-23T22:46:52.257Z,23.38
2022-09-23T22:49:19.671Z,24.02
2022-09-23T22:51:46.654Z,23.08
2022-09-23T22:54:13.159Z,23.98
2022-09-23T22:56:39.556Z,23.80
2022-09-23T22:59:08.111Z,23.52
2022-09-23T23:01:35.128Z,23.90
2022-09-23T23:04:02.090Z,24.23
2022-09-23T23:06:36.871Z,25.60
2022-09-23T23:09:08.711Z,24.55
2022-09-23T23:14:02.786Z,23.92
2022-09-23T23:16:35.401Z,24.45
2022-09-23T23:19:09.466Z,25.25
2022-09-23T23:21:37.067Z,25.40
2022-09-23T23:24:04.865Z,25.60
2022-09-23T23:26:33.822Z,25.92
2022-09-23T23:29:01.343Z,27.13
2022-09-23T23:31:29.180Z,26.17
2022-09-23T23:33:55.679Z,27.52
2022-09-23T23:36:23.150Z,27.38
2022-09-23T23:38:51.531Z,27.55
2022-09-23T23:41:22.414Z,26.08
2022-09-23T23:44:01.075Z,27.20
2022-09-23T23:46:30.113Z,27.95
2022-09-23T23:48:57.469Z,26.40
2022-09-23T23:51:27.674Z,26.75
2022-09-23T23:53:56.467Z,25.77
2022-09-23T23:56:24.856Z,25.77
2022-09-23T23:58:59.619Z,24.67
